createdAt,value
2023-02-14T00:02:21.515Z,100981.94
2023-02-14T00:05:25.347Z,100978.22
2023-02-14T00:08:28.974Z,100987.97
2023-02-14T00:11:32.957Z,100970.81
2023-02-14T00:14:55.719Z,100964.06
2023-02-14T00:18:00.961Z,100969.75
2023-02-14T00:21:04.782Z,100980.31
2023-02-14T00:24:11.710Z,100983.75
2023-02-14T00:27:15.334Z,100994.13
2023-02-14T00:30:20.632Z,100986.06
2023-02-14T00:33:24.594Z,100982.31
2023-02-14T00:36:28.848Z,100982.94
2023-02-14T00:39:32.581Z,100975.03
2023-02-14T00:42:36.572Z,100973.50
2023-02-14T00:45:41.624Z,100980.69
2023-02-14T00:48:45.339Z,100969.19
2023-02-14T00:51:48.937Z,100981.59
2023-02-14T00:54:52.483Z,100986.75
2023-02-14T00:57:56.192Z,100987.53
2023-02-14T01:01:02.072Z,100977.59
2023-02-14T01:04:06.357Z,100992.44
2023-02-14T01:07:10.149Z,100981.84
2023-02-14T01:10:14.567Z,100975.56
2023-02-14T01:13:19.017Z,100973.84
2023-02-14T01:16:26.014Z,100971.19
2023-02-14T01:19:31.736Z,100965.09
2023-02-14T01:22:37.897Z,100956.38
2023-02-14T01:25:41.700Z,100962.47
2023-02-14T01:28:47.474Z,100947.59
2023-02-14T01:31:52.608Z,100947.00
2023-02-14T01:34:56.348Z,100946.75
2023-02-14T01:37:59.975Z,100956.50
2023-02-14T01:41:03.651Z,100963.47
2023-02-14T01:44:09.280Z,100956.09
2023-02-14T01:47:15.603Z,100956.72
2023-02-14T01:50:24.233Z,100949.72
2023-02-14T01:53:30.225Z,100958.47
2023-02-14T01:56:39.595Z,100949.16
2023-02-14T01:59:48.454Z,100935.03
2023-02-14T02:02:53.912Z,100919.41
2023-02-14T02:06:05.115Z,100927.06
2023-02-14T02:09:16.010Z,100922.41
2023-02-14T02:12:19.718Z,100914.19
2023-02-14T02:15:28.034Z,100913.09
2023-02-14T02:18:48.188Z,100916.59
2023-02-14T02:22:25.928Z,100907.75
2023-02-14T02:25:49.171Z,100903.94
2023-02-14T02:29:21.072Z,100913.28
2023-02-14T02:33:14.336Z,100906.53
2023-02-14T02:36:51.947Z,100896.06
2023-02-14T02:40:12.390Z,100900.75
2023-02-14T02:43:27.302Z,100903.94
2023-02-14T02:46:50.138Z,100903.94
2023-02-14T02:50:17.552Z,100910.63
2023-02-14T02:53:29.060Z,100903.09
2023-02-14T02:56:47.506Z,100901.25
2023-02-14T02:59:53.948Z,100895.91
2023-02-14T03:03:16.977Z,100890.78
2023-02-14T03:06:20.574Z,100886.22
2023-02-14T03:09:57.714Z,100886.03
2023-02-14T03:13:38.344Z,100874.16
2023-02-14T03:16:56.703Z,100879.88
2023-02-14T03:20:13.765Z,100871.50
2023-02-14T03:23:23.394Z,100872.34
2023-02-14T03:26:36.933Z,100873.13
2023-02-14T03:29:54.824Z,100862.84
2023-02-14T03:33:04.671Z,100868.34
2023-02-14T03:36:14.168Z,100847.69
2023-02-14T03:39:23.414Z,100858.88
2023-02-14T03:42:33.994Z,100863.72
2023-02-14T03:45:44.582Z,100859.25
2023-02-14T03:48:51.989Z,100860.97
2023-02-14T03:52:00.313Z,100854.88
2023-02-14T03:55:06.350Z,100870.72
2023-02-14T03:58:18.364Z,100874.81
2023-02-14T04:01:25.436Z,100873.06
2023-02-14T04:04:32.445Z,100881.22
2023-02-14T04:07:46.922Z,100872.53
2023-02-14T04:10:51.074Z,100865.66
2023-02-14T04:13:56.512Z,100851.47
2023-02-14T04:17:17.242Z,100857.09
2023-02-14T04:20:21.395Z,100845.72
2023-02-14T04:23:25.133Z,100842.03
2023-02-14T04:26:28.834Z,100841.16
2023-02-14T04:29:33.980Z,100835.34
2023-02-14T04:32:37.703Z,100824.81
2023-02-14T04:35:41.311Z,100829.34
2023-02-14T04:38:45.589Z,100820.50
2023-02-14T04:41:49.174Z,100820.34
2023-02-14T04:44:54.235Z,100810.63
2023-02-14T04:47:57.829Z,100807.56
2023-02-14T04:51:01.720Z,100809.53
2023-02-14T04:54:05.613Z,100811.81
2023-02-14T04:57:09.299Z,100798.94
2023-02-14T05:00:16.029Z,100801.72
2023-02-14T05:03:19.722Z,100799.59
2023-02-14T05:06:23.308Z,100788.94
2023-02-14T05:09:26.957Z,100785.19
2023-02-14T05:12:30.601Z,100766.22
2023-02-14T05:15:38.306Z,100774.13
2023-02-14T05:18:42.389Z,100780.91
2023-02-14T05:21:46.187Z,100782.09
2023-02-14T05:24:49.861Z,100790.53
2023-02-14T05:27:53.504Z,100797.22
2023-02-14T05:30:59.194Z,100801.50
2023-02-14T05:34:03.027Z,100800.81
2023-02-14T05:37:06.674Z,100794.19
2023-02-14T05:40:13.726Z,100796.06
2023-02-14T05:43:17.397Z,100789.28
2023-02-14T05:46:22.448Z,100792.81
2023-02-14T05:49:25.980Z,100791.53
2023-02-14T05:52:29.838Z,100781.84
2023-02-14T05:55:33.475Z,100783.25
2023-02-14T05:58:37.405Z,100770.44
2023-02-14T06:01:42.616Z,100770.97
2023-02-14T06:04:46.402Z,100771.88
2023-02-14T06:07:51.643Z,100775.06
2023-02-14T06:10:55.455Z,100776.78
2023-02-14T06:13:59.803Z,100779.13
2023-02-14T06:17:05.098Z,100784.09
2023-02-14T06:20:10.956Z,100774.91
2023-02-14T06:23:14.864Z,100786.50
2023-02-14T06:26:18.655Z,100782.34
2023-02-14T06:29:22.444Z,100776.13
2023-02-14T06:32:27.752Z,100773.91
2023-02-14T06:35:31.424Z,100777.44
2023-02-14T06:38:35.216Z,100779.81
2023-02-14T06:41:38.974Z,100783.59
2023-02-14T06:44:42.793Z,100776.44
2023-02-14T06:47:48.333Z,100780.22
2023-02-14T06:50:52.516Z,100788.69
2023-02-14T06:53:56.237Z,100784.66
2023-02-14T06:57:00.054Z,100787.78
2023-02-14T07:00:04.503Z,100786.69
2023-02-14T07:03:10.104Z,100788.13
2023-02-14T07:06:13.923Z,100782.78
2023-02-14T07:09:18.568Z,100779.47
2023-02-14T07:12:22.413Z,100783.91
2023-02-14T07:15:26.262Z,100780.97
2023-02-14T07:18:31.542Z,100781.38
2023-02-14T07:21:35.333Z,100780.59
2023-02-14T07:24:39.123Z,100782.75
2023-02-14T07:27:42.966Z,100773.75
2023-02-14T07:30:46.883Z,100777.66
2023-02-14T07:33:52.440Z,100778.16
2023-02-14T07:36:56.263Z,100770.44
2023-02-14T07:40:00.040Z,100766.28
2023-02-14T07:43:03.849Z,100772.00
2023-02-14T07:46:08.725Z,100756.84
2023-02-14T07:49:13.972Z,100765.06
2023-02-14T07:52:17.842Z,100768.16
2023-02-14T07:55:21.703Z,100760.06
2023-02-14T07:58:25.533Z,100757.59
2023-02-14T08:01:29.420Z,100762.09
2023-02-14T08:04:34.822Z,100758.94
2023-02-14T08:07:38.613Z,100756.06
2023-02-14T08:10:43.782Z,100760.94
2023-02-14T08:13:47.572Z,100768.09
2023-02-14T08:16:51.394Z,100767.88
2023-02-14T08:19:56.587Z,100774.22
2023-02-14T08:23:00.341Z,100769.50
2023-02-14T08:26:05.096Z,100776.38
2023-02-14T08:29:08.930Z,100785.53
2023-02-14T08:32:12.977Z,100777.22
2023-02-14T08:35:18.405Z,100773.41
2023-02-14T08:38:22.604Z,100776.41
2023-02-14T08:41:26.786Z,100786.13
2023-02-14T08:44:30.566Z,100800.44
2023-02-14T08:47:36.206Z,100783.03
2023-02-14T08:50:42.266Z,100775.16
2023-02-14T08:53:46.630Z,100778.81
2023-02-14T08:56:50.505Z,100764.22
2023-02-14T08:59:54.338Z,100762.78
2023-02-14T09:02:58.203Z,100759.06
2023-02-14T09:06:06.257Z,100764.50
2023-02-14T09:09:10.079Z,100743.72
2023-02-14T09:12:13.868Z,100742.63
2023-02-14T09:15:17.853Z,100743.22
2023-02-14T09:18:21.964Z,100732.44
2023-02-14T09:21:29.028Z,100733.09
2023-02-14T09:24:34.352Z,100727.16
2023-02-14T09:27:38.132Z,100737.47
2023-02-14T09:30:41.968Z,100733.44
2023-02-14T09:34:04.449Z,100720.38
2023-02-14T09:37:12.258Z,100714.84
2023-02-14T09:40:20.698Z,100718.47
2023-02-14T09:43:32.416Z,100709.78
2023-02-14T09:46:44.657Z,100718.84
2023-02-14T09:49:50.616Z,100712.38
2023-02-14T09:52:59.330Z,100700.44
2023-02-14T09:56:11.911Z,100698.94
2023-02-14T09:59:21.097Z,100695.50
2023-02-14T10:02:45.277Z,100698.25
2023-02-14T10:05:59.208Z,100696.09
2023-02-14T10:09:14.480Z,100686.13
2023-02-14T10:12:24.730Z,100688.22
2023-02-14T10:15:33.130Z,100678.91
2023-02-14T10:18:42.361Z,100680.53
2023-02-14T10:21:53.718Z,100673.78
2023-02-14T10:25:03.436Z,100662.66
2023-02-14T10:28:15.831Z,100663.28
2023-02-14T10:31:23.365Z,100665.81
2023-02-14T10:34:36.298Z,100661.91
2023-02-14T10:37:52.771Z,100648.38
2023-02-14T10:41:33.254Z,100652.00
2023-02-14T10:44:47.358Z,100655.16
2023-02-14T10:48:00.216Z,100637.34
2023-02-14T10:51:08.212Z,100631.25
2023-02-14T10:54:21.947Z,100629.31
2023-02-14T10:57:31.917Z,100629.34
2023-02-14T11:00:39.473Z,100625.47
2023-02-14T11:03:54.068Z,100627.25
2023-02-14T11:06:58.088Z,100616.09
2023-02-14T11:10:03.097Z,100615.81
2023-02-14T11:13:28.924Z,100615.41
2023-02-14T11:16:35.090Z,100607.72
2023-02-14T11:19:39.201Z,100604.31
2023-02-14T11:22:42.969Z,100599.84
2023-02-14T11:25:53.022Z,100597.28
2023-02-14T11:29:00.900Z,100596.31
2023-02-14T11:32:12.329Z,100594.34
2023-02-14T11:35:24.561Z,100604.78
2023-02-14T11:38:32.076Z,100593.63
2023-02-14T11:41:54.720Z,100591.34
2023-02-14T11:44:59.991Z,100586.22
2023-02-14T11:48:37.272Z,100585.25
2023-02-14T11:51:45.715Z,100595.94
2023-02-14T11:54:50.528Z,100581.19
2023-02-14T11:57:55.090Z,100572.34
2023-02-14T12:01:02.261Z,100570.44
2023-02-14T12:04:15.213Z,100563.81
2023-02-14T12:07:23.201Z,100566.81
2023-02-14T12:10:29.512Z,100564.00
2023-02-14T12:13:34.592Z,100559.84
2023-02-14T12:16:47.474Z,100561.97
2023-02-14T12:19:56.964Z,100555.91
2023-02-14T12:23:07.543Z,100548.00
2023-02-14T12:26:19.343Z,100553.25
2023-02-14T12:29:27.581Z,100558.19
2023-02-14T12:32:34.181Z,100566.22
2023-02-14T12:35:48.891Z,100554.25
2023-02-14T12:39:04.278Z,100541.13
2023-02-14T12:42:23.862Z,100551.47
2023-02-14T12:45:52.326Z,100545.38
2023-02-14T12:49:16.268Z,100552.28
2023-02-14T12:53:09.329Z,100544.50
2023-02-14T12:56:23.680Z,100537.97
2023-02-14T12:59:36.250Z,100528.94
2023-02-14T13:02:58.057Z,100536.22
2023-02-14T13:06:11.882Z,100541.72
2023-02-14T13:09:27.677Z,100542.03
2023-02-14T13:12:38.610Z,100540.97
2023-02-14T13:15:52.148Z,100542.59
2023-02-14T13:19:03.811Z,100530.47
2023-02-14T13:22:14.370Z,100541.22
2023-02-14T13:25:31.580Z,100543.75
2023-02-14T13:28:37.917Z,100537.06
2023-02-14T13:31:43.111Z,100557.13
2023-02-14T13:34:48.695Z,100539.75
2023-02-14T13:37:56.947Z,100553.69
2023-02-14T13:41:05.651Z,100550.56
2023-02-14T13:44:09.836Z,100545.00
2023-02-14T13:47:21.566Z,100558.06
2023-02-14T13:50:25.581Z,100568.53
2023-02-14T13:53:36.901Z,100575.69
2023-02-14T13:56:40.886Z,100577.28
2023-02-14T13:59:44.716Z,100583.44
2023-02-14T14:02:53.856Z,100579.75
2023-02-14T14:06:04.980Z,100590.28
2023-02-14T14:09:12.315Z,100592.63
2023-02-14T14:12:54.628Z,100591.22
2023-02-14T14:16:27.900Z,100590.34
2023-02-14T14:19:41.196Z,100595.19
2023-02-14T14:22:49.391Z,100591.78
2023-02-14T14:25:54.686Z,100584.44
2023-02-14T14:28:58.588Z,100583.53
2023-02-14T14:32:10.983Z,100585.53
2023-02-14T14:35:21.005Z,100592.69
2023-02-14T14:38:26.108Z,100590.44
2023-02-14T14:41:32.909Z,100585.81
2023-02-14T14:44:37.745Z,100594.47
2023-02-14T14:47:45.120Z,100582.19
2023-02-14T14:50:50.678Z,100590.00
2023-02-14T14:53:58.375Z,100594.72
2023-02-14T14:57:04.972Z,100582.41
2023-02-14T15:00:27.406Z,100594.47
2023-02-14T15:03:32.253Z,100597.53
2023-02-14T15:06:36.014Z,100601.47
2023-02-14T15:09:42.773Z,100594.94
2023-02-14T15:13:06.475Z,100602.09
2023-02-14T15:16:10.349Z,100596.28
2023-02-14T15:19:21.158Z,100594.38
2023-02-14T15:22:29.756Z,100611.16
2023-02-14T15:25:35.678Z,100621.53
2023-02-14T15:28:40.877Z,100614.66
2023-02-14T15:31:44.785Z,100610.00
2023-02-14T15:34:50.115Z,100620.22
2023-02-14T15:37:54.489Z,100615.34
2023-02-14T15:40:59.670Z,100618.69
2023-02-14T15:44:05.319Z,100628.13
2023-02-14T15:47:09.189Z,100633.16
2023-02-14T15:50:16.972Z,100622.31
2023-02-14T15:53:36.204Z,100609.63
2023-02-14T15:56:46.939Z,100610.56
2023-02-14T15:59:52.465Z,100615.47
2023-02-14T16:03:00.774Z,100605.00
2023-02-14T16:06:06.459Z,100615.06
2023-02-14T16:09:26.641Z,100612.19
2023-02-14T16:12:35.823Z,100615.81
2023-02-14T16:15:46.148Z,100625.41
2023-02-14T16:18:53.296Z,100620.31
2023-02-14T16:21:57.832Z,100619.69
2023-02-14T16:25:02.284Z,100617.28
2023-02-14T16:28:06.323Z,100620.06
2023-02-14T16:31:17.947Z,100615.53
2023-02-14T16:34:22.106Z,100622.16
2023-02-14T16:37:29.685Z,100626.34
2023-02-14T16:40:33.820Z,100631.22
2023-02-14T16:43:38.449Z,100629.34
2023-02-14T16:46:44.176Z,100633.72
2023-02-14T16:49:48.015Z,100634.53
2023-02-14T16:52:53.830Z,100646.63
2023-02-14T16:55:59.125Z,100639.44
2023-02-14T16:59:02.905Z,100645.25
2023-02-14T17:02:08.298Z,100655.25
2023-02-14T17:05:12.228Z,100650.25
2023-02-14T17:08:17.086Z,100642.00
2023-02-14T17:11:21.579Z,100652.31
2023-02-14T17:14:29.937Z,100648.66
2023-02-14T17:17:35.980Z,100641.56
2023-02-14T17:20:40.190Z,100651.25
2023-02-14T17:23:43.941Z,100649.16
2023-02-14T17:26:47.778Z,100650.28
2023-02-14T17:29:52.504Z,100660.72
2023-02-14T17:32:57.910Z,100659.22
2023-02-14T17:36:06.943Z,100664.06
2023-02-14T17:39:10.628Z,100667.78
2023-02-14T17:42:14.515Z,100677.81
2023-02-14T17:45:18.451Z,100687.84
2023-02-14T17:48:24.149Z,100681.22
2023-02-14T17:51:27.898Z,100681.44
2023-02-14T17:54:31.599Z,100681.41
2023-02-14T17:57:35.842Z,100685.44
2023-02-14T18:00:39.655Z,100690.50
2023-02-14T18:03:45.213Z,100687.44
2023-02-14T18:06:48.853Z,100680.97
2023-02-14T18:09:52.591Z,100682.31
2023-02-14T18:12:56.354Z,100690.06
2023-02-14T18:16:03.509Z,100679.69
2023-02-14T18:19:10.253Z,100680.13
2023-02-14T18:22:14.262Z,100686.53
2023-02-14T18:25:18.192Z,100686.84
2023-02-14T18:28:23.207Z,100678.31
2023-02-14T18:31:27.877Z,100681.47
2023-02-14T18:34:33.172Z,100676.78
2023-02-14T18:37:36.917Z,100679.72
2023-02-14T18:40:41.486Z,100676.19
2023-02-14T18:43:45.492Z,100673.13
2023-02-14T18:46:49.265Z,100673.19
2023-02-14T18:49:54.520Z,100679.63
2023-02-14T18:52:58.364Z,100676.78
2023-02-14T18:56:05.636Z,100667.09
2023-02-14T18:59:11.666Z,100667.84
2023-02-14T19:02:15.639Z,100661.47
2023-02-14T19:05:20.977Z,100656.91
2023-02-14T19:08:24.723Z,100657.13
2023-02-14T19:11:31.761Z,100655.59
2023-02-14T19:14:35.820Z,100635.22
2023-02-14T19:17:40.030Z,100643.81
2023-02-14T19:20:45.341Z,100639.44
2023-02-14T19:23:49.577Z,100641.34
2023-02-14T19:26:54.773Z,100637.63
2023-02-14T19:29:58.475Z,100645.94
2023-02-14T19:33:02.294Z,100653.66
2023-02-14T19:36:09.522Z,100660.03
2023-02-14T19:39:14.204Z,100668.59
2023-02-14T19:42:18.012Z,100676.59
2023-02-14T19:45:22.161Z,100684.66
2023-02-14T19:48:26.041Z,100690.03
2023-02-14T19:51:34.136Z,100686.31
2023-02-14T19:54:39.859Z,100696.50
2023-02-14T19:57:43.842Z,100690.88
2023-02-14T20:00:47.608Z,100693.66
2023-02-14T20:03:51.442Z,100700.88
2023-02-14T20:06:57.486Z,100709.75
2023-02-14T20:10:01.282Z,100697.25
2023-02-14T20:13:05.034Z,100697.34
2023-02-14T20:16:12.310Z,100701.13
2023-02-14T20:19:18.509Z,100704.09
2023-02-14T20:22:23.898Z,100707.53
2023-02-14T20:25:27.628Z,100705.59
2023-02-14T20:28:31.461Z,100716.44
2023-02-14T20:31:36.308Z,100710.50
2023-02-14T20:34:40.449Z,100708.44
2023-02-14T20:37:45.778Z,100710.88
2023-02-14T20:40:49.507Z,100716.88
2023-02-14T20:43:53.677Z,100715.06
2023-02-14T20:46:59.747Z,100711.34
2023-02-14T20:50:03.749Z,100706.81
2023-02-14T20:53:09.058Z,100729.50
2023-02-14T20:56:14.618Z,100724.03
2023-02-14T20:59:24.557Z,100721.53
2023-02-14T21:02:28.408Z,100720.31
2023-02-14T21:05:32.242Z,100733.09
2023-02-14T21:08:38.804Z,100734.06
2023-02-14T21:11:42.717Z,100739.78
2023-02-14T21:14:46.475Z,100744.41
2023-02-14T21:17:50.264Z,100740.88
2023-02-14T21:20:54.781Z,100744.84
2023-02-14T21:24:01.276Z,100738.09
2023-02-14T21:27:05.192Z,100742.72
2023-02-14T21:30:10.149Z,100744.00
2023-02-14T21:33:15.740Z,100740.59
2023-02-14T21:36:20.829Z,100734.28
2023-02-14T21:39:28.121Z,100738.47
2023-02-14T21:42:31.984Z,100742.38
2023-02-14T21:45:52.892Z,100735.53
2023-02-14T21:49:15.494Z,100737.34
2023-02-14T21:52:19.387Z,100734.75
2023-02-14T21:55:24.586Z,100736.63
2023-02-14T21:58:28.402Z,100742.34
2023-02-14T22:01:33.913Z,100739.41
2023-02-14T22:04:38.322Z,100746.16
2023-02-14T22:07:42.112Z,100748.00
2023-02-14T22:10:47.347Z,100750.91
2023-02-14T22:13:51.657Z,100744.50
2023-02-14T22:16:55.448Z,100744.59
2023-02-14T22:19:59.222Z,100750.50
2023-02-14T22:23:03.101Z,100752.94
2023-02-14T22:26:16.686Z,100754.41
2023-02-14T22:29:20.693Z,100754.31
2023-02-14T22:32:24.616Z,100757.47
2023-02-14T22:35:28.440Z,100755.53
2023-02-14T22:38:32.239Z,100755.91
2023-02-14T22:41:38.108Z,100741.50
2023-02-14T22:44:42.041Z,100750.91
2023-02-14T22:47:45.898Z,100751.22
2023-02-14T22:50:49.677Z,100751.97
2023-02-14T22:53:56.217Z,100760.31
2023-02-14T22:57:01.451Z,100769.22
2023-02-14T23:00:11.923Z,100768.59
2023-02-14T23:03:16.027Z,100770.47
2023-02-14T23:06:19.817Z,100769.53
2023-02-14T23:09:24.328Z,100774.53
2023-02-14T23:12:47.107Z,100772.44
2023-02-14T23:16:11.897Z,100768.81
2023-02-14T23:19:35.040Z,100773.59
2023-02-14T23:22:41.098Z,100772.91
2023-02-14T23:25:44.906Z,100786.00
2023-02-14T23:28:50.176Z,100779.19
2023-02-14T23:31:54.120Z,100788.31
2023-02-14T23:34:59.306Z,100781.69
2023-02-14T23:38:03.173Z,100789.00
2023-02-14T23:41:28.257Z,100790.38
2023-02-14T23:44:33.694Z,100790.53
2023-02-14T23:47:37.461Z,100788.81
2023-02-14T23:50:41.335Z,100785.38
2023-02-14T23:53:45.108Z,100796.00
2023-02-14T23:56:48.992Z,100801.78
2023-02-14T23:59:54.381Z,100813.31
